sensor_id;sensor_type;location;lat;lon;timestamp;P1;durP1;ratioP1;P2;durP2;ratioP2
57663;SDS011;43493;53.098;6.064;2023-12-20T00:00:58;21.20;;;3.80;;
57663;SDS011;43493;53.098;6.064;2023-12-20T00:03:24;25.27;;;3.70;;
57663;SDS011;43493;53.098;6.064;2023-12-20T00:05:50;27.43;;;3.40;;
57663;SDS011;43493;53.098;6.064;2023-12-20T00:08:16;21.10;;;3.07;;
57663;SDS011;43493;53.098;6.064;2023-12-20T00:10:42;25.93;;;4.50;;
57663;SDS011;43493;53.098;6.064;2023-12-20T00:13:08;24.20;;;4.03;;
57663;SDS011;43493;53.098;6.064;2023-12-20T00:15:34;23.73;;;2.97;;
57663;SDS011;43493;53.098;6.064;2023-12-20T00:18:00;28.87;;;3.77;;
57663;SDS011;43493;53.098;6.064;2023-12-20T00:20:26;29.33;;;3.30;;
57663;SDS011;43493;53.098;6.064;2023-12-20T00:22:54;21.83;;;3.00;;
57663;SDS011;43493;53.098;6.064;2023-12-20T00:25:21;26.67;;;3.20;;
57663;SDS011;43493;53.098;6.064;2023-12-20T00:27:46;33.17;;;3.57;;
57663;SDS011;43493;53.098;6.064;2023-12-20T00:30:12;28.37;;;3.80;;
57663;SDS011;43493;53.098;6.064;2023-12-20T00:32:38;27.37;;;3.90;;
57663;SDS011;43493;53.098;6.064;2023-12-20T00:35:04;29.90;;;3.87;;
57663;SDS011;43493;53.098;6.064;2023-12-20T00:37:30;29.93;;;3.70;;
57663;SDS011;43493;53.098;6.064;2023-12-20T00:39:55;22.13;;;3.13;;
57663;SDS011;43493;53.098;6.064;2023-12-20T00:42:21;24.80;;;3.90;;
57663;SDS011;43493;53.098;6.064;2023-12-20T00:44:47;25.57;;;5.07;;
57663;SDS011;43493;53.098;6.064;2023-12-20T00:47:12;25.50;;;3.87;;
57663;SDS011;43493;53.098;6.064;2023-12-20T00:49:38;20.63;;;3.53;;
57663;SDS011;43493;53.098;6.064;2023-12-20T00:52:04;25.67;;;4.43;;
57663;SDS011;43493;53.098;6.064;2023-12-20T00:54:30;27.67;;;3.77;;
57663;SDS011;43493;53.098;6.064;2023-12-20T00:56:56;26.37;;;4.47;;
57663;SDS011;43493;53.098;6.064;2023-12-20T00:59:21;26.83;;;3.40;;
57663;SDS011;43493;53.098;6.064;2023-12-20T01:01:47;29.57;;;3.97;;
57663;SDS011;43493;53.098;6.064;2023-12-20T01:04:13;26.87;;;4.40;;
57663;SDS011;43493;53.098;6.064;2023-12-20T01:06:38;30.57;;;4.97;;
57663;SDS011;43493;53.098;6.064;2023-12-20T01:09:04;25.60;;;4.47;;
57663;SDS011;43493;53.098;6.064;2023-12-20T01:11:30;27.43;;;4.17;;
57663;SDS011;43493;53.098;6.064;2023-12-20T01:13:55;31.77;;;5.10;;
57663;SDS011;43493;53.098;6.064;2023-12-20T01:16:21;24.73;;;3.70;;
57663;SDS011;43493;53.098;6.064;2023-12-20T01:18:47;26.27;;;4.17;;
57663;SDS011;43493;53.098;6.064;2023-12-20T01:21:12;32.17;;;5.20;;
57663;SDS011;43493;53.098;6.064;2023-12-20T01:23:38;28.33;;;4.77;;
57663;SDS011;43493;53.098;6.064;2023-12-20T01:26:04;25.93;;;3.97;;
57663;SDS011;43493;53.098;6.064;2023-12-20T01:28:30;26.87;;;4.60;;
57663;SDS011;43493;53.098;6.064;2023-12-20T01:30:57;29.00;;;4.17;;
57663;SDS011;43493;53.098;6.064;2023-12-20T01:33:23;25.87;;;4.63;;
57663;SDS011;43493;53.098;6.064;2023-12-20T01:35:48;23.77;;;4.00;;
57663;SDS011;43493;53.098;6.064;2023-12-20T01:38:14;30.43;;;3.63;;
57663;SDS011;43493;53.098;6.064;2023-12-20T01:40:40;31.47;;;4.60;;
57663;SDS011;43493;53.098;6.064;2023-12-20T01:43:09;32.80;;;4.63;;
57663;SDS011;43493;53.098;6.064;2023-12-20T01:45:36;27.60;;;4.63;;
57663;SDS011;43493;53.098;6.064;2023-12-20T01:48:02;25.03;;;4.13;;
57663;SDS011;43493;53.098;6.064;2023-12-20T01:50:30;31.97;;;4.53;;
57663;SDS011;43493;53.098;6.064;2023-12-20T01:52:57;45.00;;;5.53;;
57663;SDS011;43493;53.098;6.064;2023-12-20T01:55:26;27.13;;;3.77;;
57663;SDS011;43493;53.098;6.064;2023-12-20T01:57:54;30.60;;;4.57;;
57663;SDS011;43493;53.098;6.064;2023-12-20T02:00:20;33.03;;;6.07;;
57663;SDS011;43493;53.098;6.064;2023-12-20T02:02:52;25.20;;;4.67;;
57663;SDS011;43493;53.098;6.064;2023-12-20T02:05:20;36.30;;;5.30;;
57663;SDS011;43493;53.098;6.064;2023-12-20T02:07:47;36.17;;;5.33;;
57663;SDS011;43493;53.098;6.064;2023-12-20T02:10:13;24.83;;;4.87;;
57663;SDS011;43493;53.098;6.064;2023-12-20T02:12:39;30.40;;;4.20;;
57663;SDS011;43493;53.098;6.064;2023-12-20T02:15:05;33.37;;;6.17;;
57663;SDS011;43493;53.098;6.064;2023-12-20T02:17:32;37.87;;;4.83;;
57663;SDS011;43493;53.098;6.064;2023-12-20T02:19:58;37.17;;;4.83;;
57663;SDS011;43493;53.098;6.064;2023-12-20T02:22:24;41.90;;;6.00;;
57663;SDS011;43493;53.098;6.064;2023-12-20T02:24:50;29.50;;;5.43;;
57663;SDS011;43493;53.098;6.064;2023-12-20T02:27:17;27.83;;;4.63;;
57663;SDS011;43493;53.098;6.064;2023-12-20T02:29:44;39.43;;;5.10;;
57663;SDS011;43493;53.098;6.064;2023-12-20T02:32:13;31.00;;;5.50;;
57663;SDS011;43493;53.098;6.064;2023-12-20T02:34:39;36.30;;;5.73;;
57663;SDS011;43493;53.098;6.064;2023-12-20T02:37:04;35.57;;;5.70;;
57663;SDS011;43493;53.098;6.064;2023-12-20T02:39:30;26.70;;;5.03;;
57663;SDS011;43493;53.098;6.064;2023-12-20T02:41:56;40.13;;;6.27;;
57663;SDS011;43493;53.098;6.064;2023-12-20T02:44:21;24.57;;;5.20;;
57663;SDS011;43493;53.098;6.064;2023-12-20T02:46:47;35.97;;;6.37;;
57663;SDS011;43493;53.098;6.064;2023-12-20T02:49:13;29.43;;;5.00;;
57663;SDS011;43493;53.098;6.064;2023-12-20T02:51:38;37.13;;;6.07;;
57663;SDS011;43493;53.098;6.064;2023-12-20T02:54:04;38.87;;;6.57;;
57663;SDS011;43493;53.098;6.064;2023-12-20T02:56:31;33.73;;;6.30;;
57663;SDS011;43493;53.098;6.064;2023-12-20T02:58:59;35.13;;;4.93;;
57663;SDS011;43493;53.098;6.064;2023-12-20T03:01:26;35.13;;;5.50;;
57663;SDS011;43493;53.098;6.064;2023-12-20T03:03:52;34.93;;;5.57;;
57663;SDS011;43493;53.098;6.064;2023-12-20T03:06:18;26.60;;;5.50;;
57663;SDS011;43493;53.098;6.064;2023-12-20T03:08:44;34.50;;;5.67;;
57663;SDS011;43493;53.098;6.064;2023-12-20T03:11:10;33.10;;;5.70;;
57663;SDS011;43493;53.098;6.064;2023-12-20T03:13:36;36.17;;;6.57;;
57663;SDS011;43493;53.098;6.064;2023-12-20T03:16:11;36.87;;;6.50;;
57663;SDS011;43493;53.098;6.064;2023-12-20T03:18:37;32.20;;;5.33;;
57663;SDS011;43493;53.098;6.064;2023-12-20T03:21:04;35.40;;;5.43;;
57663;SDS011;43493;53.098;6.064;2023-12-20T03:23:30;35.57;;;6.20;;
57663;SDS011;43493;53.098;6.064;2023-12-20T03:25:57;30.80;;;5.33;;
57663;SDS011;43493;53.098;6.064;2023-12-20T03:28:23;30.60;;;4.90;;
57663;SDS011;43493;53.098;6.064;2023-12-20T03:30:50;43.80;;;7.37;;
57663;SDS011;43493;53.098;6.064;2023-12-20T03:33:15;35.97;;;6.60;;
57663;SDS011;43493;53.098;6.064;2023-12-20T03:35:41;45.40;;;5.43;;
57663;SDS011;43493;53.098;6.064;2023-12-20T03:38:07;36.10;;;5.87;;
57663;SDS011;43493;53.098;6.064;2023-12-20T03:40:33;36.73;;;6.90;;
57663;SDS011;43493;53.098;6.064;2023-12-20T03:42:59;36.13;;;5.77;;
57663;SDS011;43493;53.098;6.064;2023-12-20T03:45:24;39.40;;;6.40;;
57663;SDS011;43493;53.098;6.064;2023-12-20T03:47:50;30.17;;;5.53;;
57663;SDS011;43493;53.098;6.064;2023-12-20T03:50:20;32.57;;;5.33;;
57663;SDS011;43493;53.098;6.064;2023-12-20T03:52:49;40.27;;;7.30;;
57663;SDS011;43493;53.098;6.064;2023-12-20T03:55:15;29.80;;;5.27;;
57663;SDS011;43493;53.098;6.064;2023-12-20T03:57:41;32.37;;;5.73;;
57663;SDS011;43493;53.098;6.064;2023-12-20T04:00:07;33.30;;;4.43;;
57663;SDS011;43493;53.098;6.064;2023-12-20T04:02:36;30.73;;;5.40;;
57663;SDS011;43493;53.098;6.064;2023-12-20T04:05:06;23.37;;;4.43;;
57663;SDS011;43493;53.098;6.064;2023-12-20T04:07:32;31.30;;;6.43;;
57663;SDS011;43493;53.098;6.064;2023-12-20T04:09:58;35.27;;;6.60;;
57663;SDS011;43493;53.098;6.064;2023-12-20T04:12:24;33.07;;;6.13;;
57663;SDS011;43493;53.098;6.064;2023-12-20T04:14:49;28.10;;;4.60;;
57663;SDS011;43493;53.098;6.064;2023-12-20T04:17:15;33.80;;;5.60;;
57663;SDS011;43493;53.098;6.064;2023-12-20T04:19:43;37.63;;;5.70;;
57663;SDS011;43493;53.098;6.064;2023-12-20T04:22:08;31.80;;;5.50;;
57663;SDS011;43493;53.098;6.064;2023-12-20T04:24:34;35.70;;;6.67;;
57663;SDS011;43493;53.098;6.064;2023-12-20T04:27:00;36.53;;;5.70;;
57663;SDS011;43493;53.098;6.064;2023-12-20T04:29:26;39.07;;;5.83;;
57663;SDS011;43493;53.098;6.064;2023-12-20T04:31:52;39.17;;;6.73;;
57663;SDS011;43493;53.098;6.064;2023-12-20T04:34:18;41.30;;;5.97;;
57663;SDS011;43493;53.098;6.064;2023-12-20T04:36:44;34.10;;;5.50;;
57663;SDS011;43493;53.098;6.064;2023-12-20T04:39:11;34.43;;;7.03;;
57663;SDS011;43493;53.098;6.064;2023-12-20T04:41:37;37.13;;;5.27;;
57663;SDS011;43493;53.098;6.064;2023-12-20T04:44:03;36.60;;;5.33;;
57663;SDS011;43493;53.098;6.064;2023-12-20T04:46:29;37.73;;;5.97;;
57663;SDS011;43493;53.098;6.064;2023-12-20T04:48:54;35.07;;;6.90;;
57663;SDS011;43493;53.098;6.064;2023-12-20T04:51:20;27.80;;;5.77;;
57663;SDS011;43493;53.098;6.064;2023-12-20T04:53:46;31.53;;;5.07;;
57663;SDS011;43493;53.098;6.064;2023-12-20T04:56:12;31.30;;;5.73;;
57663;SDS011;43493;53.098;6.064;2023-12-20T04:58:37;33.43;;;6.60;;
57663;SDS011;43493;53.098;6.064;2023-12-20T05:01:03;35.53;;;6.60;;
57663;SDS011;43493;53.098;6.064;2023-12-20T05:03:33;34.57;;;5.90;;
57663;SDS011;43493;53.098;6.064;2023-12-20T05:05:59;34.53;;;5.30;;
57663;SDS011;43493;53.098;6.064;2023-12-20T05:08:25;30.23;;;4.83;;
57663;SDS011;43493;53.098;6.064;2023-12-20T05:10:53;35.83;;;6.77;;
57663;SDS011;43493;53.098;6.064;2023-12-20T05:13:20;28.77;;;5.37;;
57663;SDS011;43493;53.098;6.064;2023-12-20T05:15:45;29.53;;;5.73;;
57663;SDS011;43493;53.098;6.064;2023-12-20T05:18:11;33.57;;;5.63;;
57663;SDS011;43493;53.098;6.064;2023-12-20T05:20:38;33.60;;;5.53;;
57663;SDS011;43493;53.098;6.064;2023-12-20T05:23:04;32.03;;;5.10;;
57663;SDS011;43493;53.098;6.064;2023-12-20T05:25:30;53.47;;;7.23;;
57663;SDS011;43493;53.098;6.064;2023-12-20T05:27:55;38.70;;;5.93;;
57663;SDS011;43493;53.098;6.064;2023-12-20T05:30:21;45.90;;;6.67;;
57663;SDS011;43493;53.098;6.064;2023-12-20T05:32:47;34.47;;;6.43;;
57663;SDS011;43493;53.098;6.064;2023-12-20T05:35:13;34.30;;;5.37;;
57663;SDS011;43493;53.098;6.064;2023-12-20T05:37:38;38.00;;;5.87;;
57663;SDS011;43493;53.098;6.064;2023-12-20T05:40:04;38.20;;;7.47;;
57663;SDS011;43493;53.098;6.064;2023-12-20T05:42:31;39.13;;;6.87;;
57663;SDS011;43493;53.098;6.064;2023-12-20T05:44:56;31.03;;;5.40;;
57663;SDS011;43493;53.098;6.064;2023-12-20T05:47:22;30.53;;;5.57;;
57663;SDS011;43493;53.098;6.064;2023-12-20T05:49:48;31.67;;;5.57;;
57663;SDS011;43493;53.098;6.064;2023-12-20T05:52:15;34.43;;;5.67;;
57663;SDS011;43493;53.098;6.064;2023-12-20T05:54:40;39.90;;;7.87;;
57663;SDS011;43493;53.098;6.064;2023-12-20T05:57:06;39.70;;;5.53;;
57663;SDS011;43493;53.098;6.064;2023-12-20T05:59:32;36.83;;;6.17;;
57663;SDS011;43493;53.098;6.064;2023-12-20T06:01:57;38.83;;;5.73;;
57663;SDS011;43493;53.098;6.064;2023-12-20T06:04:23;42.90;;;6.67;;
57663;SDS011;43493;53.098;6.064;2023-12-20T06:06:49;36.00;;;7.03;;
57663;SDS011;43493;53.098;6.064;2023-12-20T06:09:14;37.27;;;5.60;;
57663;SDS011;43493;53.098;6.064;2023-12-20T06:11:40;27.23;;;4.80;;
57663;SDS011;43493;53.098;6.064;2023-12-20T06:14:06;31.00;;;4.90;;
57663;SDS011;43493;53.098;6.064;2023-12-20T06:16:32;34.60;;;5.13;;
57663;SDS011;43493;53.098;6.064;2023-12-20T06:18:57;28.37;;;6.13;;
57663;SDS011;43493;53.098;6.064;2023-12-20T06:21:23;31.17;;;5.50;;
57663;SDS011;43493;53.098;6.064;2023-12-20T06:23:49;29.70;;;5.70;;
57663;SDS011;43493;53.098;6.064;2023-12-20T06:26:15;28.83;;;5.37;;
57663;SDS011;43493;53.098;6.064;2023-12-20T06:28:40;36.13;;;6.23;;
57663;SDS011;43493;53.098;6.064;2023-12-20T06:31:06;37.37;;;6.00;;
57663;SDS011;43493;53.098;6.064;2023-12-20T06:33:32;30.73;;;5.80;;
57663;SDS011;43493;53.098;6.064;2023-12-20T06:35:58;30.90;;;5.53;;
57663;SDS011;43493;53.098;6.064;2023-12-20T06:38:23;32.70;;;6.23;;
57663;SDS011;43493;53.098;6.064;2023-12-20T06:40:49;29.27;;;5.37;;
57663;SDS011;43493;53.098;6.064;2023-12-20T06:43:15;33.07;;;5.37;;
57663;SDS011;43493;53.098;6.064;2023-12-20T06:45:40;31.03;;;5.60;;
57663;SDS011;43493;53.098;6.064;2023-12-20T06:48:06;33.97;;;6.80;;
57663;SDS011;43493;53.098;6.064;2023-12-20T06:50:32;45.83;;;7.00;;
57663;SDS011;43493;53.098;6.064;2023-12-20T06:52:58;30.97;;;6.80;;
57663;SDS011;43493;53.098;6.064;2023-12-20T06:55:24;33.13;;;6.60;;
57663;SDS011;43493;53.098;6.064;2023-12-20T06:57:49;30.53;;;6.20;;
57663;SDS011;43493;53.098;6.064;2023-12-20T07:00:15;33.17;;;5.20;;
57663;SDS011;43493;53.098;6.064;2023-12-20T07:02:41;29.50;;;5.57;;
57663;SDS011;43493;53.098;6.064;2023-12-20T07:05:08;37.73;;;7.23;;
57663;SDS011;43493;53.098;6.064;2023-12-20T07:07:34;35.33;;;6.73;;
57663;SDS011;43493;53.098;6.064;2023-12-20T07:10:00;27.03;;;5.30;;
57663;SDS011;43493;53.098;6.064;2023-12-20T07:12:25;33.40;;;5.93;;
57663;SDS011;43493;53.098;6.064;2023-12-20T07:14:51;27.67;;;5.00;;
57663;SDS011;43493;53.098;6.064;2023-12-20T07:17:17;33.70;;;6.03;;
57663;SDS011;43493;53.098;6.064;2023-12-20T07:19:42;30.67;;;5.97;;
57663;SDS011;43493;53.098;6.064;2023-12-20T07:22:08;26.80;;;5.73;;
57663;SDS011;43493;53.098;6.064;2023-12-20T07:24:34;33.00;;;5.33;;
57663;SDS011;43493;53.098;6.064;2023-12-20T07:27:00;38.63;;;6.13;;
57663;SDS011;43493;53.098;6.064;2023-12-20T07:29:26;33.67;;;6.27;;
57663;SDS011;43493;53.098;6.064;2023-12-20T07:31:52;31.87;;;5.83;;
57663;SDS011;43493;53.098;6.064;2023-12-20T07:34:19;36.93;;;7.43;;
57663;SDS011;43493;53.098;6.064;2023-12-20T07:36:45;37.07;;;5.90;;
57663;SDS011;43493;53.098;6.064;2023-12-20T07:39:12;33.60;;;6.27;;
57663;SDS011;43493;53.098;6.064;2023-12-20T07:41:38;33.63;;;6.03;;
57663;SDS011;43493;53.098;6.064;2023-12-20T07:44:04;36.83;;;5.20;;
57663;SDS011;43493;53.098;6.064;2023-12-20T07:46:30;33.70;;;6.63;;
57663;SDS011;43493;53.098;6.064;2023-12-20T07:48:56;29.40;;;5.90;;
57663;SDS011;43493;53.098;6.064;2023-12-20T07:51:21;46.13;;;8.07;;
57663;SDS011;43493;53.098;6.064;2023-12-20T07:53:47;30.23;;;5.47;;
57663;SDS011;43493;53.098;6.064;2023-12-20T07:56:16;31.90;;;5.40;;
57663;SDS011;43493;53.098;6.064;2023-12-20T07:58:43;36.77;;;5.73;;
57663;SDS011;43493;53.098;6.064;2023-12-20T08:01:10;32.17;;;7.00;;
57663;SDS011;43493;53.098;6.064;2023-12-20T08:03:36;29.77;;;5.57;;
57663;SDS011;43493;53.098;6.064;2023-12-20T08:06:02;31.60;;;6.27;;
57663;SDS011;43493;53.098;6.064;2023-12-20T08:08:28;25.73;;;6.10;;
57663;SDS011;43493;53.098;6.064;2023-12-20T08:10:54;24.43;;;4.50;;
57663;SDS011;43493;53.098;6.064;2023-12-20T08:13:20;19.80;;;3.47;;
57663;SDS011;43493;53.098;6.064;2023-12-20T08:15:50;21.83;;;4.47;;
57663;SDS011;43493;53.098;6.064;2023-12-20T08:18:15;16.23;;;3.73;;
57663;SDS011;43493;53.098;6.064;2023-12-20T08:20:41;15.47;;;3.17;;
57663;SDS011;43493;53.098;6.064;2023-12-20T08:23:07;21.50;;;4.33;;
57663;SDS011;43493;53.098;6.064;2023-12-20T08:25:32;25.87;;;4.20;;
57663;SDS011;43493;53.098;6.064;2023-12-20T08:27:58;26.03;;;5.17;;
57663;SDS011;43493;53.098;6.064;2023-12-20T08:30:24;36.80;;;6.27;;
57663;SDS011;43493;53.098;6.064;2023-12-20T08:32:50;36.40;;;6.10;;
57663;SDS011;43493;53.098;6.064;2023-12-20T08:35:15;31.53;;;6.17;;
57663;SDS011;43493;53.098;6.064;2023-12-20T08:37:43;29.87;;;5.57;;
57663;SDS011;43493;53.098;6.064;2023-12-20T08:40:08;32.00;;;5.10;;
57663;SDS011;43493;53.098;6.064;2023-12-20T08:42:34;36.67;;;6.67;;
57663;SDS011;43493;53.098;6.064;2023-12-20T08:45:00;40.80;;;7.57;;
57663;SDS011;43493;53.098;6.064;2023-12-20T08:47:26;38.03;;;6.33;;
57663;SDS011;43493;53.098;6.064;2023-12-20T08:49:52;34.10;;;5.70;;
57663;SDS011;43493;53.098;6.064;2023-12-20T08:52:22;37.07;;;5.67;;
57663;SDS011;43493;53.098;6.064;2023-12-20T08:54:49;30.53;;;5.90;;
57663;SDS011;43493;53.098;6.064;2023-12-20T08:57:17;34.83;;;4.57;;
57663;SDS011;43493;53.098;6.064;2023-12-20T08:59:45;33.23;;;5.43;;
57663;SDS011;43493;53.098;6.064;2023-12-20T09:02:12;42.30;;;7.80;;
57663;SDS011;43493;53.098;6.064;2023-12-20T09:04:37;31.53;;;6.00;;
57663;SDS011;43493;53.098;6.064;2023-12-20T09:07:04;33.77;;;6.57;;
57663;SDS011;43493;53.098;6.064;2023-12-20T09:09:29;29.30;;;5.70;;
57663;SDS011;43493;53.098;6.064;2023-12-20T09:11:57;15.47;;;3.50;;
57663;SDS011;43493;53.098;6.064;2023-12-20T09:14:23;8.50;;;2.07;;
57663;SDS011;43493;53.098;6.064;2023-12-20T09:16:49;10.53;;;2.00;;
57663;SDS011;43493;53.098;6.064;2023-12-20T09:19:16;6.30;;;1.40;;
57663;SDS011;43493;53.098;6.064;2023-12-20T09:21:43;13.10;;;2.63;;
57663;SDS011;43493;53.098;6.064;2023-12-20T09:24:08;14.03;;;2.50;;
57663;SDS011;43493;53.098;6.064;2023-12-20T09:26:34;14.37;;;2.03;;
57663;SDS011;43493;53.098;6.064;2023-12-20T09:29:00;16.73;;;2.53;;
57663;SDS011;43493;53.098;6.064;2023-12-20T09:31:26;18.73;;;2.97;;
57663;SDS011;43493;53.098;6.064;2023-12-20T09:33:52;12.43;;;2.03;;
57663;SDS011;43493;53.098;6.064;2023-12-20T09:36:17;13.63;;;1.87;;
57663;SDS011;43493;53.098;6.064;2023-12-20T09:38:43;12.53;;;1.83;;
57663;SDS011;43493;53.098;6.064;2023-12-20T09:41:09;14.20;;;2.90;;
57663;SDS011;43493;53.098;6.064;2023-12-20T09:43:38;15.53;;;2.07;;
57663;SDS011;43493;53.098;6.064;2023-12-20T09:46:05;12.40;;;2.10;;
57663;SDS011;43493;53.098;6.064;2023-12-20T09:48:32;13.67;;;2.53;;
57663;SDS011;43493;53.098;6.064;2023-12-20T09:50:59;15.77;;;2.07;;
57663;SDS011;43493;53.098;6.064;2023-12-20T09:53:24;14.77;;;3.03;;
57663;SDS011;43493;53.098;6.064;2023-12-20T09:55:56;16.97;;;2.40;;
57663;SDS011;43493;53.098;6.064;2023-12-20T09:58:25;17.53;;;2.50;;
57663;SDS011;43493;53.098;6.064;2023-12-20T10:00:50;12.53;;;2.80;;
57663;SDS011;43493;53.098;6.064;2023-12-20T10:03:18;18.77;;;2.03;;
57663;SDS011;43493;53.098;6.064;2023-12-20T10:05:49;16.97;;;2.90;;
57663;SDS011;43493;53.098;6.064;2023-12-20T10:08:21;17.30;;;2.50;;
57663;SDS011;43493;53.098;6.064;2023-12-20T10:10:48;16.37;;;3.50;;
57663;SDS011;43493;53.098;6.064;2023-12-20T10:13:14;14.87;;;2.47;;
57663;SDS011;43493;53.098;6.064;2023-12-20T10:15:41;15.73;;;2.60;;
57663;SDS011;43493;53.098;6.064;2023-12-20T10:18:06;15.10;;;2.67;;
57663;SDS011;43493;53.098;6.064;2023-12-20T10:20:33;16.30;;;3.23;;
57663;SDS011;43493;53.098;6.064;2023-12-20T10:22:59;15.93;;;2.70;;
57663;SDS011;43493;53.098;6.064;2023-12-20T10:25:25;14.53;;;3.00;;
57663;SDS011;43493;53.098;6.064;2023-12-20T10:28:08;17.87;;;2.43;;
57663;SDS011;43493;53.098;6.064;2023-12-20T10:30:45;15.47;;;2.83;;
57663;SDS011;43493;53.098;6.064;2023-12-20T10:33:10;9.33;;;2.10;;
57663;SDS011;43493;53.098;6.064;2023-12-20T10:35:37;13.37;;;2.20;;
57663;SDS011;43493;53.098;6.064;2023-12-20T10:38:04;15.80;;;2.67;;
57663;SDS011;43493;53.098;6.064;2023-12-20T10:40:31;20.67;;;3.20;;
57663;SDS011;43493;53.098;6.064;2023-12-20T10:42:59;17.10;;;2.93;;
57663;SDS011;43493;53.098;6.064;2023-12-20T10:45:27;15.70;;;2.97;;
57663;SDS011;43493;53.098;6.064;2023-12-20T10:47:53;17.73;;;2.20;;
57663;SDS011;43493;53.098;6.064;2023-12-20T10:50:19;14.40;;;2.90;;
57663;SDS011;43493;53.098;6.064;2023-12-20T10:52:46;15.50;;;2.77;;
57663;SDS011;43493;53.098;6.064;2023-12-20T10:55:12;16.53;;;2.10;;
57663;SDS011;43493;53.098;6.064;2023-12-20T10:57:38;15.27;;;2.30;;
57663;SDS011;43493;53.098;6.064;2023-12-20T11:00:05;18.77;;;2.90;;
57663;SDS011;43493;53.098;6.064;2023-12-20T11:02:38;15.73;;;3.20;;
57663;SDS011;43493;53.098;6.064;2023-12-20T11:08:09;27.47;;;4.03;;
57663;SDS011;43493;53.098;6.064;2023-12-20T11:10:49;19.43;;;3.20;;
57663;SDS011;43493;53.098;6.064;2023-12-20T11:16:25;21.30;;;3.67;;
57663;SDS011;43493;53.098;6.064;2023-12-20T11:18:51;23.63;;;3.10;;
57663;SDS011;43493;53.098;6.064;2023-12-20T11:21:17;17.43;;;2.80;;
57663;SDS011;43493;53.098;6.064;2023-12-20T11:23:43;14.97;;;2.80;;
57663;SDS011;43493;53.098;6.064;2023-12-20T11:26:09;16.27;;;2.87;;
57663;SDS011;43493;53.098;6.064;2023-12-20T11:28:34;15.13;;;2.40;;
57663;SDS011;43493;53.098;6.064;2023-12-20T11:31:00;15.27;;;3.80;;
57663;SDS011;43493;53.098;6.064;2023-12-20T11:33:31;14.30;;;3.07;;
57663;SDS011;43493;53.098;6.064;2023-12-20T11:35:57;18.97;;;3.03;;
57663;SDS011;43493;53.098;6.064;2023-12-20T11:38:24;16.03;;;3.27;;
57663;SDS011;43493;53.098;6.064;2023-12-20T11:40:51;21.40;;;4.00;;
57663;SDS011;43493;53.098;6.064;2023-12-20T11:43:35;16.03;;;3.10;;
57663;SDS011;43493;53.098;6.064;2023-12-20T11:46:08;15.83;;;2.50;;
57663;SDS011;43493;53.098;6.064;2023-12-20T11:48:35;18.50;;;4.20;;
57663;SDS011;43493;53.098;6.064;2023-12-20T11:51:02;19.47;;;3.43;;
57663;SDS011;43493;53.098;6.064;2023-12-20T11:53:34;20.10;;;3.20;;
57663;SDS011;43493;53.098;6.064;2023-12-20T11:56:02;19.47;;;4.17;;
57663;SDS011;43493;53.098;6.064;2023-12-20T11:58:28;25.93;;;3.50;;
57663;SDS011;43493;53.098;6.064;2023-12-20T12:00:55;19.83;;;4.23;;
57663;SDS011;43493;53.098;6.064;2023-12-20T12:03:21;18.97;;;3.17;;
57663;SDS011;43493;53.098;6.064;2023-12-20T12:05:49;18.53;;;3.23;;
57663;SDS011;43493;53.098;6.064;2023-12-20T12:08:15;20.80;;;3.50;;
57663;SDS011;43493;53.098;6.064;2023-12-20T12:10:44;20.43;;;3.00;;
57663;SDS011;43493;53.098;6.064;2023-12-20T12:13:10;19.47;;;3.33;;
57663;SDS011;43493;53.098;6.064;2023-12-20T12:15:36;14.87;;;2.80;;
57663;SDS011;43493;53.098;6.064;2023-12-20T12:18:03;19.57;;;3.00;;
57663;SDS011;43493;53.098;6.064;2023-12-20T12:20:29;31.03;;;4.77;;
57663;SDS011;43493;53.098;6.064;2023-12-20T12:23:02;23.00;;;4.00;;
57663;SDS011;43493;53.098;6.064;2023-12-20T12:25:30;19.85;;;3.40;;
57663;SDS011;43493;53.098;6.064;2023-12-20T12:27:57;24.93;;;3.63;;
57663;SDS011;43493;53.098;6.064;2023-12-20T12:30:23;18.37;;;2.60;;
57663;SDS011;43493;53.098;6.064;2023-12-20T12:32:50;19.23;;;3.77;;
57663;SDS011;43493;53.098;6.064;2023-12-20T12:35:17;19.20;;;3.73;;
57663;SDS011;43493;53.098;6.064;2023-12-20T12:37:43;18.67;;;3.60;;
57663;SDS011;43493;53.098;6.064;2023-12-20T12:40:13;25.83;;;3.40;;
57663;SDS011;43493;53.098;6.064;2023-12-20T12:42:41;21.53;;;3.30;;
57663;SDS011;43493;53.098;6.064;2023-12-20T12:45:08;18.70;;;3.30;;
57663;SDS011;43493;53.098;6.064;2023-12-20T12:47:34;11.90;;;2.87;;
57663;SDS011;43493;53.098;6.064;2023-12-20T12:50:00;15.07;;;2.47;;
57663;SDS011;43493;53.098;6.064;2023-12-20T12:52:26;14.53;;;2.13;;
57663;SDS011;43493;53.098;6.064;2023-12-20T12:54:52;13.23;;;2.27;;
57663;SDS011;43493;53.098;6.064;2023-12-20T12:57:18;10.13;;;2.27;;
57663;SDS011;43493;53.098;6.064;2023-12-20T12:59:45;18.10;;;2.70;;
57663;SDS011;43493;53.098;6.064;2023-12-20T13:02:12;15.43;;;2.73;;
57663;SDS011;43493;53.098;6.064;2023-12-20T13:04:41;19.40;;;2.80;;
57663;SDS011;43493;53.098;6.064;2023-12-20T13:07:08;13.57;;;2.67;;
57663;SDS011;43493;53.098;6.064;2023-12-20T13:09:37;12.37;;;2.70;;
57663;SDS011;43493;53.098;6.064;2023-12-20T13:12:04;17.47;;;3.97;;
57663;SDS011;43493;53.098;6.064;2023-12-20T13:14:33;12.87;;;3.67;;
57663;SDS011;43493;53.098;6.064;2023-12-20T13:17:00;13.80;;;2.83;;
57663;SDS011;43493;53.098;6.064;2023-12-20T13:19:26;15.40;;;2.23;;
57663;SDS011;43493;53.098;6.064;2023-12-20T13:21:52;15.63;;;2.47;;
57663;SDS011;43493;53.098;6.064;2023-12-20T13:24:18;15.67;;;2.73;;
57663;SDS011;43493;53.098;6.064;2023-12-20T13:26:44;14.53;;;2.00;;
57663;SDS011;43493;53.098;6.064;2023-12-20T13:29:10;17.17;;;2.37;;
57663;SDS011;43493;53.098;6.064;2023-12-20T13:31:36;13.33;;;1.97;;
57663;SDS011;43493;53.098;6.064;2023-12-20T13:34:02;15.23;;;3.27;;
57663;SDS011;43493;53.098;6.064;2023-12-20T13:36:28;13.93;;;2.27;;
57663;SDS011;43493;53.098;6.064;2023-12-20T13:38:53;13.30;;;2.10;;
57663;SDS011;43493;53.098;6.064;2023-12-20T13:41:19;16.60;;;2.53;;
57663;SDS011;43493;53.098;6.064;2023-12-20T13:43:45;19.53;;;3.37;;
57663;SDS011;43493;53.098;6.064;2023-12-20T13:46:11;13.63;;;2.43;;
57663;SDS011;43493;53.098;6.064;2023-12-20T13:48:36;18.30;;;2.97;;
57663;SDS011;43493;53.098;6.064;2023-12-20T13:51:03;18.67;;;2.33;;
57663;SDS011;43493;53.098;6.064;2023-12-20T13:53:29;11.77;;;2.20;;
57663;SDS011;43493;53.098;6.064;2023-12-20T13:55:54;13.33;;;2.87;;
57663;SDS011;43493;53.098;6.064;2023-12-20T13:58:20;20.43;;;2.97;;
57663;SDS011;43493;53.098;6.064;2023-12-20T14:00:46;15.83;;;3.33;;
57663;SDS011;43493;53.098;6.064;2023-12-20T14:03:11;13.17;;;2.30;;
57663;SDS011;43493;53.098;6.064;2023-12-20T14:05:37;11.50;;;2.47;;
57663;SDS011;43493;53.098;6.064;2023-12-20T14:08:03;15.67;;;3.17;;
57663;SDS011;43493;53.098;6.064;2023-12-20T14:10:29;11.67;;;2.10;;
57663;SDS011;43493;53.098;6.064;2023-12-20T14:12:55;12.07;;;2.80;;
57663;SDS011;43493;53.098;6.064;2023-12-20T14:15:21;13.60;;;2.37;;
57663;SDS011;43493;53.098;6.064;2023-12-20T14:17:50;16.23;;;2.77;;
57663;SDS011;43493;53.098;6.064;2023-12-20T14:20:16;16.73;;;2.00;;
57663;SDS011;43493;53.098;6.064;2023-12-20T14:22:43;13.33;;;2.10;;
57663;SDS011;43493;53.098;6.064;2023-12-20T14:25:12;14.23;;;1.90;;
57663;SDS011;43493;53.098;6.064;2023-12-20T14:27:39;11.53;;;2.20;;
57663;SDS011;43493;53.098;6.064;2023-12-20T14:30:06;13.53;;;2.10;;
57663;SDS011;43493;53.098;6.064;2023-12-20T14:32:34;20.20;;;3.00;;
57663;SDS011;43493;53.098;6.064;2023-12-20T14:35:03;11.47;;;1.83;;
57663;SDS011;43493;53.098;6.064;2023-12-20T14:37:30;11.53;;;1.90;;